Terminal Aerodrome Forecast
Issued by NWS

Current Version | Previous Version | Text Only | Print | Product List | Glossary On
Versions: 1 2 3 4 5 6 7 8 9 10 11 12 13 14 15 16 17
000
FTAK31 PAFA 171135
TAFAOM
TAF
PAOM 171135Z 1712/1812 VRB03KT P6SM OVC050
     FM171600 26004KT P6SM VCSH SCT015 OVC025
     FM180200 22004KT P6SM SCT025 BKN100=

USA.gov is the U.S. government's official web portal to all federal, state and local government web resources and services.